Time,TemperatureF,DewpointF,PressureIn,WindDirection,WindDirectionDegrees,WindSpeedMPH,WindSpeedGustMPH,Humidity,HourlyPrecipIn,Conditions,Clouds,dailyrainin,SoftwareType,DateUTC
2013-06-22 00:00:00,72.2,64.2,30.15,WNW,285,1.0,1.0,76,0.00,,,0.00,Wunderground v.1.13,2013-06-22 04:00:00,
2013-06-22 00:05:00,71.1,63.9,30.14,WNW,285,1.0,1.0,78,0.00,,,0.00,Wunderground v.1.13,2013-06-22 04:05:00,
2013-06-22 00:10:00,70.5,63.7,30.14,WNW,285,0.0,0.0,79,0.00,,,0.00,Wunderground v.1.13,2013-06-22 04:10:00,
2013-06-22 00:15:00,70.1,63.6,30.14,WNW,285,0.0,1.0,80,0.00,,,0.00,Wunderground v.1.13,2013-06-22 04:15:00,
2013-06-22 00:25:00,69.6,63.5,30.14,WSW,252,0.0,1.0,81,0.00,,,0.00,Wunderground v.1.13,2013-06-22 04:25:00,
2013-06-22 00:35:00,70.2,63.7,30.14,WSW,252,0.0,0.0,80,0.00,,,0.00,Wunderground v.1.13,2013-06-22 04:35:00,
2013-06-22 00:40:00,69.9,63.4,30.14,WSW,252,1.0,1.0,80,0.00,,,0.00,Wunderground v.1.13,2013-06-22 04:40:00,
2013-06-22 00:45:00,69.4,63.7,30.14,WSW,252,0.0,0.0,82,0.00,,,0.00,Wunderground v.1.13,2013-06-22 04:45:00,
2013-06-22 00:50:00,69.1,63.4,30.14,WSW,252,0.0,0.0,82,0.00,,,0.00,Wunderground v.1.13,2013-06-22 04:50:00,
2013-06-22 01:00:00,68.4,63.4,30.14,WSW,252,0.0,0.0,84,0.00,,,0.00,Wunderground v.1.13,2013-06-22 05:00:00,
2013-06-22 01:10:00,68.3,63.3,30.14,WSW,252,0.0,3.0,84,0.00,,,0.00,Wunderground v.1.13,2013-06-22 05:10:00,
2013-06-22 01:20:00,68.0,63.3,30.14,West,281,2.0,2.0,85,0.00,,,0.00,Wunderground v.1.13,2013-06-22 05:20:00,
2013-06-22 01:25:00,67.8,63.1,30.14,West,281,1.0,1.0,85,0.00,,,0.00,Wunderground v.1.13,2013-06-22 05:25:00,
2013-06-22 01:35:00,67.6,62.9,30.14,West,281,0.0,0.0,85,0.00,,,0.00,Wunderground v.1.13,2013-06-22 05:35:00,
2013-06-22 01:40:00,67.6,63.3,30.14,West,281,1.0,1.0,86,0.00,,,0.00,Wunderground v.1.13,2013-06-22 05:40:00,
2013-06-22 01:50:00,67.5,63.2,30.14,West,281,0.0,0.0,86,0.00,,,0.00,Wunderground v.1.13,2013-06-22 05:50:00,
2013-06-22 02:00:00,67.3,63.0,30.14,West,281,0.0,0.0,86,0.00,,,0.00,Wunderground v.1.13,2013-06-22 06:00:00,
2013-06-22 02:10:00,67.2,62.9,30.14,West,281,0.0,0.0,86,0.00,,,0.00,Wunderground v.1.13,2013-06-22 06:10:00,
2013-06-22 02:15:00,67.1,62.8,30.13,West,281,0.0,0.0,86,0.00,,,0.00,Wunderground v.1.13,2013-06-22 06:15:00,
2013-06-22 02:20:00,67.1,62.8,30.13,West,281,0.0,0.0,86,0.00,,,0.00,Wunderground v.1.13,2013-06-22 06:20:00,
2013-06-22 02:30:00,66.7,62.7,30.13,West,281,1.0,4.0,87,0.00,,,0.00,Wunderground v.1.13,2013-06-22 06:30:00,
2013-06-22 02:40:00,66.5,62.5,30.13,West,281,1.0,1.0,87,0.00,,,0.00,Wunderground v.1.13,2013-06-22 06:40:00,
2013-06-22 02:45:00,66.4,62.4,30.13,West,281,0.0,0.0,87,0.00,,,0.00,Wunderground v.1.13,2013-06-22 06:45:00,
2013-06-22 02:50:00,66.3,62.3,30.13,West,281,0.0,0.0,87,0.00,,,0.00,Wunderground v.1.13,2013-06-22 06:50:00,
2013-06-22 02:55:00,66.2,62.2,30.13,WNW,283,1.0,2.0,87,0.00,,,0.00,Wunderground v.1.13,2013-06-22 06:55:00,
2013-06-22 03:05:00,65.8,62.1,30.13,WNW,283,0.0,0.0,88,0.00,,,0.00,Wunderground v.1.13,2013-06-22 07:05:00,
2013-06-22 03:15:00,65.3,61.7,30.13,WNW,283,0.0,0.0,88,0.00,,,0.00,Wunderground v.1.13,2013-06-22 07:15:00,
2013-06-22 03:25:00,65.0,61.7,30.13,WNW,283,0.0,0.0,89,0.00,,,0.00,Wunderground v.1.13,2013-06-22 07:25:00,
2013-06-22 03:35:00,64.8,61.8,30.13,WNW,283,0.0,0.0,90,0.00,,,0.00,Wunderground v.1.13,2013-06-22 07:35:00,
2013-06-22 03:45:00,64.7,61.7,30.12,WNW,283,0.0,1.0,90,0.00,,,0.00,Wunderground v.1.13,2013-06-22 07:45:00,
2013-06-22 03:55:00,64.8,61.8,30.12,WNW,283,0.0,0.0,90,0.00,,,0.00,Wunderground v.1.13,2013-06-22 07:55:00,
2013-06-22 04:00:00,64.8,61.8,30.12,WNW,283,0.0,0.0,90,0.00,,,0.00,Wunderground v.1.13,2013-06-22 08:00:00,
2013-06-22 04:10:00,64.7,61.7,30.12,WNW,283,0.0,0.0,90,0.00,,,0.00,Wunderground v.1.13,2013-06-22 08:10:00,
2013-06-22 04:15:00,64.6,61.6,30.12,WNW,283,0.0,0.0,90,0.00,,,0.00,Wunderground v.1.13,2013-06-22 08:15:00,
2013-06-22 04:25:00,64.4,61.4,30.12,WNW,283,0.0,0.0,90,0.00,,,0.00,Wunderground v.1.13,2013-06-22 08:25:00,
2013-06-22 04:35:00,64.1,61.1,30.12,WNW,283,0.0,0.0,90,0.00,,,0.00,Wunderground v.1.13,2013-06-22 08:35:00,
2013-06-22 04:40:00,64.0,61.0,30.11,WNW,283,0.0,0.0,90,0.00,,,0.00,Wunderground v.1.13,2013-06-22 08:40:00,
2013-06-22 04:45:00,63.8,61.1,30.11,WNW,283,0.0,0.0,91,0.00,,,0.00,Wunderground v.1.13,2013-06-22 08:45:00,
2013-06-22 04:55:00,63.7,61.0,30.11,WNW,283,0.0,0.0,91,0.00,,,0.00,Wunderground v.1.13,2013-06-22 08:55:00,
2013-06-22 05:05:00,63.6,60.9,30.11,WNW,283,0.0,0.0,91,0.00,,,0.00,Wunderground v.1.13,2013-06-22 09:05:00,
2013-06-22 05:15:00,63.5,60.8,30.11,WNW,283,0.0,0.0,91,0.00,,,0.00,Wunderground v.1.13,2013-06-22 09:15:00,
2013-06-22 05:25:00,63.4,60.7,30.12,WNW,283,0.0,0.0,91,0.00,,,0.00,Wunderground v.1.13,2013-06-22 09:25:00,
2013-06-22 05:35:00,63.3,60.6,30.12,WNW,283,0.0,0.0,91,0.00,,,0.00,Wunderground v.1.13,2013-06-22 09:35:00,
2013-06-22 05:40:00,63.4,61.0,30.12,WNW,283,0.0,0.0,92,0.00,,,0.00,Wunderground v.1.13,2013-06-22 09:40:00,
2013-06-22 05:45:00,63.3,60.9,30.12,WNW,283,0.0,0.0,92,0.00,,,0.00,Wunderground v.1.13,2013-06-22 09:45:00,
2013-06-22 05:55:00,62.9,60.5,30.12,WNW,283,0.0,0.0,92,0.00,,,0.00,Wunderground v.1.13,2013-06-22 09:55:00,
2013-06-22 06:05:00,63.0,60.6,30.12,WNW,283,0.0,0.0,92,0.00,,,0.00,Wunderground v.1.13,2013-06-22 10:05:00,
2013-06-22 06:10:00,63.1,60.7,30.13,WNW,283,0.0,0.0,92,0.00,,,0.00,Wunderground v.1.13,2013-06-22 10:10:00,
2013-06-22 06:20:00,63.0,60.6,30.12,WNW,283,0.0,0.0,92,0.00,,,0.00,Wunderground v.1.13,2013-06-22 10:20:00,
2013-06-22 06:30:00,62.9,60.5,30.13,WNW,283,0.0,0.0,92,0.00,,,0.00,Wunderground v.1.13,2013-06-22 10:30:00,
2013-06-22 06:40:00,62.9,60.5,30.13,WNW,283,0.0,0.0,92,0.00,,,0.00,Wunderground v.1.13,2013-06-22 10:40:00,
2013-06-22 06:50:00,63.0,60.6,30.14,WNW,283,0.0,0.0,92,0.00,,,0.00,Wunderground v.1.13,2013-06-22 10:50:00,
2013-06-22 07:00:00,63.2,61.1,30.14,WNW,283,0.0,0.0,93,0.00,,,0.00,Wunderground v.1.13,2013-06-22 11:00:00,
2013-06-22 07:05:00,63.4,61.3,30.14,WNW,283,0.0,0.0,93,0.00,,,0.00,Wunderground v.1.13,2013-06-22 11:05:00,
2013-06-22 07:15:00,63.8,61.7,30.15,WNW,283,0.0,0.0,93,0.00,,,0.00,Wunderground v.1.13,2013-06-22 11:15:00,
2013-06-22 07:25:00,64.5,62.1,30.15,WNW,283,0.0,0.0,92,0.00,,,0.00,Wunderground v.1.13,2013-06-22 11:25:00,
2013-06-22 07:30:00,65.0,62.6,30.15,WNW,283,0.0,0.0,92,0.00,,,0.00,Wunderground v.1.13,2013-06-22 11:30:00,
2013-06-22 07:40:00,66.1,63.4,30.15,SSE,167,0.0,0.0,91,0.00,,,0.00,Wunderground v.1.13,2013-06-22 11:40:00,
2013-06-22 07:50:00,67.1,63.7,30.15,SSE,167,0.0,0.0,89,0.00,,,0.00,Wunderground v.1.13,2013-06-22 11:50:00,
2013-06-22 08:00:00,68.0,64.6,30.15,SSE,167,0.0,2.0,89,0.00,,,0.00,Wunderground v.1.13,2013-06-22 12:00:00,
2013-06-22 08:10:00,69.1,64.7,30.15,SSE,157,3.0,4.0,86,0.00,,,0.00,Wunderground v.1.13,2013-06-22 12:10:00,
2013-06-22 08:15:00,69.7,65.0,30.15,SSE,155,3.0,3.0,85,0.00,,,0.00,Wunderground v.1.13,2013-06-22 12:15:00,
2013-06-22 08:25:00,70.6,65.5,30.16,SSE,155,2.0,2.0,84,0.00,,,0.00,Wunderground v.1.13,2013-06-22 12:25:00,
2013-06-22 08:35:00,71.7,65.6,30.16,South,176,1.0,1.0,81,0.00,,,0.00,Wunderground v.1.13,2013-06-22 12:35:00,
2013-06-22 08:45:00,72.9,66.0,30.16,SE,146,3.0,5.0,79,0.00,,,0.00,Wunderground v.1.13,2013-06-22 12:45:00,
2013-06-22 08:55:00,73.6,66.3,30.16,SSE,150,4.0,5.0,78,0.00,,,0.00,Wunderground v.1.13,2013-06-22 12:55:00,
2013-06-22 09:05:00,74.4,66.7,30.16,SSE,155,4.0,4.0,77,0.00,,,0.00,Wunderground v.1.13,2013-06-22 13:05:00,
2013-06-22 09:15:00,75.3,66.8,30.16,SE,144,2.0,2.0,75,0.00,,,0.00,Wunderground v.1.13,2013-06-22 13:15:00,
2013-06-22 09:25:00,75.8,67.3,30.16,SSE,159,4.0,5.0,75,0.00,,,0.00,Wunderground v.1.13,2013-06-22 13:25:00,
2013-06-22 09:35:00,76.3,67.4,30.16,SSE,148,5.0,5.0,74,0.00,,,0.00,Wunderground v.1.13,2013-06-22 13:35:00,
2013-06-22 09:45:00,76.8,67.9,30.16,SSE,155,5.0,6.0,74,0.00,,,0.00,Wunderground v.1.13,2013-06-22 13:45:00,
2013-06-22 09:50:00,77.3,68.0,30.16,SSE,165,6.0,6.0,73,0.00,,,0.00,Wunderground v.1.13,2013-06-22 13:50:00,
2013-06-22 10:00:00,78.1,68.7,30.16,SSE,153,5.0,6.0,73,0.00,,,0.00,Wunderground v.1.13,2013-06-22 14:00:00,
2013-06-22 10:10:00,79.0,69.2,30.16,SSE,162,5.0,5.0,72,0.00,,,0.00,Wunderground v.1.13,2013-06-22 14:10:00,
2013-06-22 10:20:00,79.5,69.3,30.16,South,178,6.0,6.0,71,0.00,,,0.00,Wunderground v.1.13,2013-06-22 14:20:00,
2013-06-22 10:30:00,79.9,69.2,30.16,SE,145,6.0,7.0,70,0.00,,,0.00,Wunderground v.1.13,2013-06-22 14:30:00,
2013-06-22 10:40:00,80.2,69.1,30.16,South,170,5.0,5.0,69,0.00,,,0.00,Wunderground v.1.13,2013-06-22 14:40:00,
2013-06-22 10:50:00,80.9,69.8,30.16,SSE,163,5.0,12.0,69,0.00,,,0.00,Wunderground v.1.13,2013-06-22 14:50:00,
2013-06-22 10:55:00,81.4,69.4,30.16,SSE,167,5.0,5.0,67,0.00,,,0.00,Wunderground v.1.13,2013-06-22 14:55:00,
2013-06-22 11:05:00,82.6,70.1,30.16,South,184,3.0,7.0,66,0.00,,,0.00,Wunderground v.1.13,2013-06-22 15:05:00,
2013-06-22 11:15:00,83.3,70.3,30.16,SSE,161,5.0,5.0,65,0.00,,,0.00,Wunderground v.1.13,2013-06-22 15:15:00,
2013-06-22 11:25:00,83.3,68.9,30.16,South,181,7.0,7.0,62,0.00,,,0.00,Wunderground v.1.13,2013-06-22 15:25:00,
2013-06-22 11:35:00,84.0,68.6,30.16,South,171,5.0,6.0,60,0.00,,,0.00,Wunderground v.1.13,2013-06-22 15:35:00,
2013-06-22 11:45:00,84.5,68.1,30.15,SSW,200,6.0,6.0,58,0.00,,,0.00,Wunderground v.1.13,2013-06-22 15:45:00,
2013-06-22 11:55:00,84.5,68.1,30.15,SSE,167,6.0,6.0,58,0.00,,,0.00,Wunderground v.1.13,2013-06-22 15:55:00,
2013-06-22 12:05:00,85.2,68.8,30.15,SSW,211,3.0,6.0,58,0.00,,,0.00,Wunderground v.1.13,2013-06-22 16:05:00,
2013-06-22 12:10:00,85.0,67.0,30.15,South,173,3.0,3.0,55,0.00,,,0.00,Wunderground v.1.13,2013-06-22 16:10:00,
2013-06-22 12:20:00,85.6,67.6,30.15,West,268,4.0,4.0,55,0.00,,,0.00,Wunderground v.1.13,2013-06-22 16:20:00,
2013-06-22 12:30:00,85.9,66.2,30.15,SW,225,4.0,4.0,52,0.00,,,0.00,Wunderground v.1.13,2013-06-22 16:30:00,
2013-06-22 12:35:00,85.8,66.1,30.15,SSW,192,5.0,5.0,52,0.00,,,0.00,Wunderground v.1.13,2013-06-22 16:35:00,
2013-06-22 12:45:00,86.3,67.2,30.15,SSW,203,3.0,3.0,53,0.00,,,0.00,Wunderground v.1.13,2013-06-22 16:45:00,
2013-06-22 12:55:00,86.1,67.5,30.15,South,187,4.0,4.0,54,0.00,,,0.00,Wunderground v.1.13,2013-06-22 16:55:00,
2013-06-22 13:00:00,85.7,66.0,30.15,SSE,159,5.0,8.0,52,0.00,,,0.00,Wunderground v.1.13,2013-06-22 17:00:00,
2013-06-22 13:10:00,85.4,66.9,30.15,SW,227,5.0,5.0,54,0.00,,,0.00,Wunderground v.1.13,2013-06-22 17:10:00,
2013-06-22 13:15:00,85.4,66.9,30.14,SSW,213,5.0,5.0,54,0.00,,,0.00,Wunderground v.1.13,2013-06-22 17:15:00,
2013-06-22 13:20:00,85.8,67.8,30.14,SSE,160,3.0,3.0,55,0.00,,,0.00,Wunderground v.1.13,2013-06-22 17:20:00,
2013-06-22 13:30:00,86.9,68.3,30.14,South,171,3.0,3.0,54,0.00,,,0.00,Wunderground v.1.13,2013-06-22 17:30:00,
2013-06-22 13:40:00,85.9,67.3,30.14,SSE,163,5.0,5.0,54,0.00,,,0.00,Wunderground v.1.13,2013-06-22 17:40:00,
2013-06-22 13:45:00,86.0,68.0,30.14,South,171,5.0,7.0,55,0.00,,,0.00,Wunderground v.1.13,2013-06-22 17:45:00,
2013-06-22 13:55:00,86.3,67.2,30.13,SSE,154,5.0,8.0,53,0.00,,,0.00,Wunderground v.1.13,2013-06-22 17:55:00,
2013-06-22 14:05:00,86.5,67.9,30.13,SSW,197,4.0,8.0,54,0.00,,,0.00,Wunderground v.1.13,2013-06-22 18:05:00,
2013-06-22 14:15:00,86.8,68.2,30.13,WSW,237,3.0,3.0,54,0.00,,,0.00,Wunderground v.1.13,2013-06-22 18:15:00,
2013-06-22 14:25:00,86.7,68.6,30.12,SSW,200,4.0,4.0,55,0.00,,,0.00,Wunderground v.1.13,2013-06-22 18:25:00,
2013-06-22 14:35:00,86.6,67.4,30.13,SW,215,4.0,5.0,53,0.00,,,0.00,Wunderground v.1.13,2013-06-22 18:35:00,
2013-06-22 14:40:00,86.8,67.6,30.12,SW,225,4.0,6.0,53,0.00,,,0.00,Wunderground v.1.13,2013-06-22 18:40:00,
2013-06-22 14:50:00,87.0,68.3,30.12,SSW,198,4.0,4.0,54,0.00,,,0.00,Wunderground v.1.13,2013-06-22 18:50:00,
2013-06-22 15:00:00,87.1,67.9,30.12,SSE,155,4.0,4.0,53,0.00,,,0.00,Wunderground v.1.13,2013-06-22 19:00:00,
2013-06-22 15:05:00,87.2,68.0,30.11,SSW,212,4.0,4.0,53,0.00,,,0.00,Wunderground v.1.13,2013-06-22 19:05:00,
2013-06-22 15:15:00,87.2,69.6,30.11,South,174,5.0,6.0,56,0.00,,,0.00,Wunderground v.1.13,2013-06-22 19:15:00,
2013-06-22 15:25:00,87.4,69.3,30.11,South,186,5.0,5.0,55,0.00,,,0.00,Wunderground v.1.13,2013-06-22 19:25:00,
2013-06-22 15:35:00,87.1,66.8,30.10,SSE,161,6.0,6.0,51,0.00,,,0.00,Wunderground v.1.13,2013-06-22 19:35:00,
2013-06-22 15:45:00,87.2,68.5,30.10,SSE,155,4.0,9.0,54,0.00,,,0.00,Wunderground v.1.13,2013-06-22 19:45:00,
2013-06-22 15:55:00,87.2,67.4,30.09,SSE,161,8.0,8.0,52,0.00,,,0.00,Wunderground v.1.13,2013-06-22 19:55:00,
2013-06-22 16:05:00,87.2,67.4,30.09,SE,146,9.0,10.0,52,0.00,,,0.00,Wunderground v.1.13,2013-06-22 20:05:00,
2013-06-22 16:15:00,87.2,66.3,30.09,SSE,147,8.0,8.0,50,0.00,,,0.00,Wunderground v.1.13,2013-06-22 20:15:00,
2013-06-22 16:25:00,87.4,65.9,30.09,SSE,149,8.0,10.0,49,0.00,,,0.00,Wunderground v.1.13,2013-06-22 20:25:00,
2013-06-22 16:30:00,87.0,67.2,30.08,SSE,148,10.0,10.0,52,0.00,,,0.00,Wunderground v.1.13,2013-06-22 20:30:00,
2013-06-22 16:40:00,87.0,67.8,30.08,SE,134,7.0,9.0,53,0.00,,,0.00,Wunderground v.1.13,2013-06-22 20:40:00,
2013-06-22 16:50:00,87.0,68.3,30.07,SE,127,8.0,9.0,54,0.00,,,0.00,Wunderground v.1.13,2013-06-22 20:50:00,
2013-06-22 17:00:00,86.9,67.7,30.06,SSE,153,9.0,9.0,53,0.00,,,0.00,Wunderground v.1.13,2013-06-22 21:00:00,
2013-06-22 17:10:00,87.1,67.3,30.06,SE,144,8.0,9.0,52,0.00,,,0.00,Wunderground v.1.13,2013-06-22 21:10:00,
2013-06-22 17:20:00,86.9,66.6,30.05,ESE,122,11.0,11.0,51,0.00,,,0.00,Wunderground v.1.13,2013-06-22 21:20:00,
2013-06-22 17:30:00,86.9,67.2,30.05,SE,143,9.0,13.0,52,0.00,,,0.00,Wunderground v.1.13,2013-06-22 21:30:00,
2013-06-22 17:40:00,86.8,67.6,30.04,SE,126,7.0,7.0,53,0.00,,,0.00,Wunderground v.1.13,2013-06-22 21:40:00,
2013-06-22 17:50:00,86.8,67.1,30.05,SSE,150,7.0,11.0,52,0.00,,,0.00,Wunderground v.1.13,2013-06-22 21:50:00,
2013-06-22 17:55:00,86.6,67.4,30.05,SE,140,8.0,8.0,53,0.00,,,0.00,Wunderground v.1.13,2013-06-22 21:55:00,
2013-06-22 18:05:00,86.8,67.1,30.04,SE,132,8.0,11.0,52,0.00,,,0.00,Wunderground v.1.13,2013-06-22 22:05:00,
2013-06-22 18:15:00,86.5,67.3,30.04,SE,140,9.0,10.0,53,0.00,,,0.00,Wunderground v.1.13,2013-06-22 22:15:00,
2013-06-22 18:20:00,86.4,67.2,30.04,SE,143,8.0,12.0,53,0.00,,,0.00,Wunderground v.1.13,2013-06-22 22:20:00,
2013-06-22 18:30:00,86.3,67.2,30.04,SSE,151,7.0,7.0,53,0.00,,,0.00,Wunderground v.1.13,2013-06-22 22:30:00,
2013-06-22 18:35:00,86.4,66.7,30.04,South,171,8.0,8.0,52,0.00,,,0.00,Wunderground v.1.13,2013-06-22 22:35:00,
2013-06-22 18:45:00,86.2,67.1,30.05,SSE,153,7.0,9.0,53,0.00,,,0.00,Wunderground v.1.13,2013-06-22 22:45:00,
2013-06-22 18:55:00,86.0,66.9,30.05,SSE,153,7.0,7.0,53,0.00,,,0.00,Wunderground v.1.13,2013-06-22 22:55:00,
2013-06-22 19:00:00,86.2,67.1,30.05,SSE,148,6.0,6.0,53,0.00,,,0.00,Wunderground v.1.13,2013-06-22 23:00:00,
2013-06-22 19:05:00,86.3,67.7,30.05,SSE,163,5.0,5.0,54,0.00,,,0.00,Wunderground v.1.13,2013-06-22 23:05:00,
2013-06-22 19:15:00,85.8,67.2,30.05,SSE,148,5.0,7.0,54,0.00,,,0.00,Wunderground v.1.13,2013-06-22 23:15:00,
2013-06-22 19:25:00,85.6,67.6,30.05,SSE,164,4.0,5.0,55,0.00,,,0.00,Wunderground v.1.13,2013-06-22 23:25:00,
2013-06-22 19:30:00,85.5,67.5,30.05,South,175,3.0,5.0,55,0.00,,,0.00,Wunderground v.1.13,2013-06-22 23:30:00,
2013-06-22 19:40:00,85.3,68.3,30.06,SSW,194,1.0,4.0,57,0.00,,,0.00,Wunderground v.1.13,2013-06-22 23:40:00,
2013-06-22 19:50:00,85.1,68.2,30.06,SE,139,1.0,1.0,57,0.00,,,0.00,Wunderground v.1.13,2013-06-22 23:50:00,
2013-06-22 20:00:00,84.7,68.3,30.06,SSE,149,1.0,1.0,58,0.00,,,0.00,Wunderground v.1.13,2013-06-23 00:00:00,
2013-06-22 20:10:00,84.2,67.8,30.06,South,190,1.0,3.0,58,0.00,,,0.00,Wunderground v.1.13,2013-06-23 00:10:00,
2013-06-22 20:20:00,83.7,68.3,30.06,SSE,167,0.0,1.0,60,0.00,,,0.00,Wunderground v.1.13,2013-06-23 00:20:00,
2013-06-22 20:30:00,82.7,68.4,30.06,SSE,157,1.0,1.0,62,0.00,,,0.00,Wunderground v.1.13,2013-06-23 00:30:00,
2013-06-22 20:35:00,82.4,68.1,30.06,SSE,157,2.0,2.0,62,0.00,,,0.00,Wunderground v.1.13,2013-06-23 00:35:00,
2013-06-22 20:45:00,82.0,68.2,30.06,SSE,151,2.0,4.0,63,0.00,,,0.00,Wunderground v.1.13,2013-06-23 00:45:00,
2013-06-22 20:55:00,81.5,68.1,30.06,SSE,158,2.0,2.0,64,0.00,,,0.00,Wunderground v.1.13,2013-06-23 00:55:00,
2013-06-22 21:05:00,81.0,68.1,30.06,SSE,155,4.0,4.0,65,0.00,,,0.00,Wunderground v.1.13,2013-06-23 01:05:00,
2013-06-22 21:10:00,80.9,68.0,30.06,SSE,155,2.0,2.0,65,0.00,,,0.00,Wunderground v.1.13,2013-06-23 01:10:00,
2013-06-22 21:20:00,80.7,67.8,30.06,SSE,155,0.0,1.0,65,0.00,,,0.00,Wunderground v.1.13,2013-06-23 01:20:00,
2013-06-22 21:30:00,80.5,68.1,30.06,SSE,155,1.0,1.0,66,0.00,,,0.00,Wunderground v.1.13,2013-06-23 01:30:00,
2013-06-22 21:40:00,80.1,68.2,30.06,SSE,155,1.0,1.0,67,0.00,,,0.00,Wunderground v.1.13,2013-06-23 01:40:00,
2013-06-22 21:50:00,79.8,67.9,30.07,SSE,155,0.0,0.0,67,0.00,,,0.00,Wunderground v.1.13,2013-06-23 01:50:00,
2013-06-22 22:00:00,79.8,68.3,30.07,SSE,155,0.0,0.0,68,0.00,,,0.00,Wunderground v.1.13,2013-06-23 02:00:00,
2013-06-22 22:10:00,78.1,67.9,30.08,West,269,3.0,3.0,71,0.00,,,0.00,Wunderground v.1.13,2013-06-23 02:10:00,
2013-06-22 22:15:00,77.5,67.8,30.08,West,267,3.0,3.0,72,0.00,,,0.00,Wunderground v.1.13,2013-06-23 02:15:00,
2013-06-22 22:25:00,77.2,67.9,30.09,West,267,0.0,0.0,73,0.00,,,0.00,Wunderground v.1.13,2013-06-23 02:25:00,
2013-06-22 22:30:00,77.0,67.7,30.09,West,267,0.0,0.0,73,0.00,,,0.00,Wunderground v.1.13,2013-06-23 02:30:00,
2013-06-22 22:40:00,76.9,67.6,30.09,West,267,0.0,0.0,73,0.00,,,0.00,Wunderground v.1.13,2013-06-23 02:40:00,
2013-06-22 22:50:00,76.7,67.8,30.09,West,267,0.0,0.0,74,0.00,,,0.00,Wunderground v.1.13,2013-06-23 02:50:00,
2013-06-22 22:55:00,76.4,67.5,30.09,West,267,0.0,0.0,74,0.00,,,0.00,Wunderground v.1.13,2013-06-23 02:55:00,
2013-06-22 23:00:00,76.1,67.6,30.09,West,267,0.0,0.0,75,0.00,,,0.00,Wunderground v.1.13,2013-06-23 03:00:00,
2013-06-22 23:10:00,75.8,67.7,30.09,West,267,0.0,0.0,76,0.00,,,0.00,Wunderground v.1.13,2013-06-23 03:10:00,
2013-06-22 23:15:00,75.4,67.3,30.09,West,267,0.0,0.0,76,0.00,,,0.00,Wunderground v.1.13,2013-06-23 03:15:00,
2013-06-22 23:20:00,75.1,67.4,30.09,West,267,0.0,0.0,77,0.00,,,0.00,Wunderground v.1.13,2013-06-23 03:20:00,
2013-06-22 23:30:00,74.4,67.5,30.09,West,267,1.0,2.0,79,0.00,,,0.00,Wunderground v.1.13,2013-06-23 03:30:00,
2013-06-22 23:40:00,73.4,67.2,30.09,West,267,0.0,0.0,81,0.00,,,0.00,Wunderground v.1.13,2013-06-23 03:40:00,
2013-06-22 23:45:00,73.2,67.0,30.09,West,267,0.0,0.0,81,0.00,,,0.00,Wunderground v.1.13,2013-06-23 03:45:00,
2013-06-22 23:55:00,72.9,67.1,30.09,West,267,1.0,1.0,82,0.00,,,0.00,Wunderground v.1.13,2013-06-23 03:55:00,